Time,TemperatureF,DewpointF,PressureIn,WindDirection,WindDirectionDegrees,WindSpeedMPH,WindSpeedGustMPH,Humidity,HourlyPrecipIn,Conditions,Clouds,dailyrainin,SoftwareType,DateUTC
2013-03-05 00:00:00,27.0,11.7,30.00,NE,53,0.0,0.0,52,0.00,,CLR,0.00,VWS V12.08,2013-03-05 05:00:00,
2013-03-05 00:05:00,27.2,11.5,30.00,NE,54,0.0,0.0,51,0.00,,CLR,0.00,VWS V12.08,2013-03-05 05:05:00,
2013-03-05 00:10:00,27.4,11.6,30.00,NE,54,0.0,0.0,51,0.00,,CLR,0.00,VWS V12.08,2013-03-05 05:10:00,
2013-03-05 00:15:00,27.5,11.8,30.00,NE,53,0.0,0.0,51,0.00,,CLR,0.00,VWS V12.08,2013-03-05 05:15:00,
2013-03-05 00:20:00,27.7,12.0,30.00,NE,54,0.0,0.0,51,0.00,,CLR,0.00,VWS V12.08,2013-03-05 05:20:00,
2013-03-05 00:25:00,27.9,12.1,30.00,NE,54,0.0,0.0,51,0.00,,CLR,0.00,VWS V12.08,2013-03-05 05:25:00,
2013-03-05 00:30:00,27.9,12.1,30.00,NE,54,0.0,0.0,51,0.00,,CLR,0.00,VWS V12.08,2013-03-05 05:30:00,
2013-03-05 00:35:00,27.9,12.1,30.00,NE,54,0.0,0.0,51,0.00,,CLR,0.00,VWS V12.08,2013-03-05 05:35:00,
2013-03-05 00:40:00,27.9,12.6,30.00,NE,54,0.0,0.0,52,0.00,,CLR,0.00,VWS V12.08,2013-03-05 05:40:00,
2013-03-05 00:45:00,27.5,13.1,30.00,NE,54,0.0,0.0,54,0.00,,CLR,0.00,VWS V12.08,2013-03-05 05:45:00,
2013-03-05 00:50:00,27.4,13.7,30.00,NE,54,0.0,0.0,56,0.00,,CLR,0.00,VWS V12.08,2013-03-05 05:50:00,
2013-03-05 00:55:00,27.2,13.6,30.00,NE,54,0.0,0.0,56,0.00,,CLR,0.00,VWS V12.08,2013-03-05 05:55:00,
2013-03-05 01:00:00,27.2,13.6,30.00,NE,54,0.0,0.0,56,0.00,,CLR,0.00,VWS V12.08,2013-03-05 06:00:00,
2013-03-05 01:05:00,27.2,13.6,30.00,NE,54,0.0,0.0,56,0.00,,CLR,0.00,VWS V12.08,2013-03-05 06:05:00,
2013-03-05 01:10:00,27.2,13.2,30.00,NE,54,0.0,0.0,55,0.00,,CLR,0.00,VWS V12.08,2013-03-05 06:10:00,
2013-03-05 01:15:00,27.2,13.6,30.00,NE,54,0.0,0.0,56,0.00,,CLR,0.00,VWS V12.08,2013-03-05 06:15:00,
2013-03-05 01:20:00,27.2,14.0,30.00,NE,54,0.0,0.0,57,0.00,,CLR,0.00,VWS V12.08,2013-03-05 06:20:00,
2013-03-05 01:25:00,27.2,14.0,30.00,NE,54,0.0,0.0,57,0.00,,CLR,0.00,VWS V12.08,2013-03-05 06:25:00,
2013-03-05 01:30:00,27.2,13.2,30.00,NE,54,0.0,0.0,55,0.00,,CLR,0.00,VWS V12.08,2013-03-05 06:30:00,
2013-03-05 01:35:00,27.4,13.7,30.00,NE,54,0.0,0.0,56,0.00,,CLR,0.00,VWS V12.08,2013-03-05 06:35:00,
2013-03-05 01:40:00,27.4,15.3,30.00,NE,53,0.0,0.0,60,0.00,,CLR,0.00,VWS V12.08,2013-03-05 06:40:00,
2013-03-05 01:45:00,27.2,13.6,30.00,NE,54,0.0,0.0,56,0.00,,CLR,0.00,VWS V12.08,2013-03-05 06:45:00,
2013-03-05 01:50:00,27.2,13.6,30.00,NE,53,0.0,0.0,56,0.00,,FEW120,0.00,VWS V12.08,2013-03-05 06:50:00,
2013-03-05 01:55:00,27.0,16.5,30.00,NNE,31,3.6,4.0,64,0.00,,FEW120,0.00,VWS V12.08,2013-03-05 06:55:00,
2013-03-05 02:00:00,26.5,16.6,30.00,NNE,30,2.2,2.7,66,0.00,,FEW120,0.00,VWS V12.08,2013-03-05 07:00:00,
2013-03-05 02:05:00,26.5,16.6,30.00,NNE,31,0.0,0.0,66,0.00,,FEW120,0.00,VWS V12.08,2013-03-05 07:05:00,
2013-03-05 02:10:00,27.0,16.8,30.00,NNE,31,0.0,0.0,65,0.00,,FEW120,0.00,VWS V12.08,2013-03-05 07:10:00,
2013-03-05 02:15:00,27.2,14.8,30.00,NNE,31,0.0,0.0,59,0.00,,FEW120,0.00,VWS V12.08,2013-03-05 07:15:00,
2013-03-05 02:20:00,27.5,14.3,30.00,NNE,31,0.0,0.0,57,0.00,,FEW120,0.00,VWS V12.08,2013-03-05 07:20:00,
2013-03-05 02:25:00,27.9,14.6,30.00,NNE,30,0.0,0.0,57,0.00,,FEW120,0.00,VWS V12.08,2013-03-05 07:25:00,
2013-03-05 02:30:00,27.9,15.1,30.00,NNE,31,0.0,0.0,58,0.00,,FEW120,0.00,VWS V12.08,2013-03-05 07:30:00,
2013-03-05 02:35:00,28.1,14.8,30.00,NNE,30,0.0,0.0,57,0.00,,FEW120,0.00,VWS V12.08,2013-03-05 07:35:00,
2013-03-05 02:40:00,27.7,16.4,30.00,NNE,31,0.0,0.0,62,0.00,,FEW120,0.00,VWS V12.08,2013-03-05 07:40:00,
2013-03-05 02:45:00,27.2,15.1,30.00,NNE,31,0.0,0.0,60,0.00,,FEW120,0.00,VWS V12.08,2013-03-05 07:45:00,
2013-03-05 02:50:00,27.0,15.0,30.00,NNE,31,0.0,0.0,60,0.00,,FEW120,0.00,VWS V12.08,2013-03-05 07:50:00,
2013-03-05 02:55:00,27.2,15.1,30.00,NNE,31,0.0,0.0,60,0.00,,FEW120,0.00,VWS V12.08,2013-03-05 07:55:00,
2013-03-05 03:00:00,27.4,14.9,30.00,NNE,31,0.0,0.0,59,0.00,,FEW120,0.00,VWS V12.08,2013-03-05 08:00:00,
2013-03-05 03:05:00,27.4,14.9,30.00,NNE,30,0.0,0.0,59,0.00,,FEW120,0.00,VWS V12.08,2013-03-05 08:05:00,
2013-03-05 03:10:00,27.4,15.7,30.00,NNE,30,0.0,0.0,61,0.00,,FEW120,0.00,VWS V12.08,2013-03-05 08:10:00,
2013-03-05 03:15:00,27.2,15.9,30.00,NNE,27,0.0,0.0,62,0.00,,FEW120,0.00,VWS V12.08,2013-03-05 08:15:00,
2013-03-05 03:20:00,27.0,15.7,30.00,NNE,27,0.0,0.0,62,0.00,,FEW120,0.00,VWS V12.08,2013-03-05 08:20:00,
2013-03-05 03:25:00,26.8,15.6,30.00,NNE,27,0.0,0.0,62,0.00,,FEW120,0.00,VWS V12.08,2013-03-05 08:25:00,
2013-03-05 03:30:00,26.8,15.6,30.00,NNE,27,0.0,0.0,62,0.00,,FEW120,0.00,VWS V12.08,2013-03-05 08:30:00,
2013-03-05 03:35:00,26.8,16.3,30.00,NNE,27,0.0,0.0,64,0.00,,FEW120,0.00,VWS V12.08,2013-03-05 08:35:00,
2013-03-05 03:40:00,26.5,16.6,29.97,NNE,27,2.7,3.1,66,0.00,,FEW120,0.00,VWS V12.08,2013-03-05 08:40:00,
2013-03-05 03:45:00,26.1,17.0,29.97,NNE,28,3.6,3.6,68,0.00,,OVC110,0.00,VWS V12.08,2013-03-05 08:45:00,
2013-03-05 03:50:00,25.7,16.6,29.97,NNE,28,3.1,3.1,68,0.00,,OVC110,0.00,VWS V12.08,2013-03-05 08:50:00,
2013-03-05 03:55:00,25.6,16.5,29.97,NE,43,3.1,3.1,68,0.00,,OVC110,0.00,VWS V12.08,2013-03-05 08:55:00,
2013-03-05 04:00:00,25.6,16.5,29.97,NE,43,3.6,3.6,68,0.00,,OVC110,0.00,VWS V12.08,2013-03-05 09:00:00,
2013-03-05 04:05:00,25.6,16.8,29.97,ENE,57,3.1,4.0,69,0.00,,OVC110,0.00,VWS V12.08,2013-03-05 09:05:00,
2013-03-05 04:10:00,25.6,16.8,29.97,NNE,30,2.7,3.1,69,0.00,,OVC110,0.00,VWS V12.08,2013-03-05 09:10:00,
2013-03-05 04:15:00,25.7,17.3,29.97,NNE,30,2.2,2.2,70,0.00,,OVC110,0.00,VWS V12.08,2013-03-05 09:15:00,
2013-03-05 04:20:00,25.7,17.0,29.97,NNE,31,2.7,3.1,69,0.00,,OVC110,0.00,VWS V12.08,2013-03-05 09:20:00,
2013-03-05 04:25:00,25.9,17.2,29.97,NE,43,2.7,3.6,69,0.00,,OVC110,0.00,VWS V12.08,2013-03-05 09:25:00,
2013-03-05 04:30:00,26.1,17.7,29.97,NE,48,2.7,3.1,70,0.00,,OVC110,0.00,VWS V12.08,2013-03-05 09:30:00,
2013-03-05 04:35:00,26.1,17.7,29.97,NE,42,3.1,3.1,70,0.00,,OVC110,0.00,VWS V12.08,2013-03-05 09:35:00,
2013-03-05 04:40:00,26.1,17.7,29.97,NE,43,2.7,2.7,70,0.00,,OVC110,0.00,VWS V12.08,2013-03-05 09:40:00,
2013-03-05 04:45:00,26.3,17.2,29.97,NE,43,0.0,2.2,68,0.00,,OVC080,0.00,VWS V12.08,2013-03-05 09:45:00,
2013-03-05 04:50:00,26.5,17.3,29.97,NE,43,0.0,0.0,68,0.00,,OVC080,0.00,VWS V12.08,2013-03-05 09:50:00,
2013-03-05 04:55:00,26.5,17.3,29.97,NE,43,0.0,0.0,68,0.00,,OVC080,0.00,VWS V12.08,2013-03-05 09:55:00,
2013-03-05 05:00:00,26.6,16.8,29.97,NE,43,0.0,0.0,66,0.00,,OVC080,0.00,VWS V12.08,2013-03-05 10:00:00,
2013-03-05 05:05:00,26.8,16.6,29.97,NE,43,2.7,3.1,65,0.00,,OVC080,0.00,VWS V12.08,2013-03-05 10:05:00,
2013-03-05 05:10:00,26.8,16.6,29.97,NE,43,2.7,2.7,65,0.00,,OVC080,0.00,VWS V12.08,2013-03-05 10:10:00,
2013-03-05 05:15:00,26.8,16.6,29.97,NE,43,2.7,2.7,65,0.00,,OVC080,0.00,VWS V12.08,2013-03-05 10:15:00,
2013-03-05 05:20:00,27.0,17.2,29.97,NE,43,2.7,2.7,66,0.00,,OVC080,0.00,VWS V12.08,2013-03-05 10:20:00,
2013-03-05 05:25:00,27.0,17.2,29.97,NE,43,0.0,0.0,66,0.00,,OVC080,0.00,VWS V12.08,2013-03-05 10:25:00,
2013-03-05 05:30:00,27.0,17.2,29.97,NE,43,0.0,0.0,66,0.00,,OVC080,0.00,VWS V12.08,2013-03-05 10:30:00,
2013-03-05 05:35:00,27.0,16.8,29.97,NE,43,0.0,0.0,65,0.00,,OVC080,0.00,VWS V12.08,2013-03-05 10:35:00,
2013-03-05 05:40:00,27.0,15.7,29.97,NE,43,0.0,0.0,62,0.00,,OVC080,0.00,VWS V12.08,2013-03-05 10:40:00,
2013-03-05 05:45:00,27.0,15.4,29.97,NE,43,0.0,0.0,61,0.00,,OVC060,0.00,VWS V12.08,2013-03-05 10:45:00,
2013-03-05 05:50:00,27.0,15.4,29.97,NE,43,0.0,0.0,61,0.00,,OVC060,0.00,VWS V12.08,2013-03-05 10:50:00,
2013-03-05 05:55:00,27.0,15.4,29.97,NE,43,0.0,0.0,61,0.00,,OVC060,0.00,VWS V12.08,2013-03-05 10:55:00,
2013-03-05 06:00:00,27.0,16.1,29.97,NE,43,3.1,3.1,63,0.00,,OVC060,0.00,VWS V12.08,2013-03-05 11:00:00,
2013-03-05 06:05:00,26.8,16.6,29.97,NE,43,2.7,3.1,65,0.00,,OVC060,0.00,VWS V12.08,2013-03-05 11:05:00,
2013-03-05 06:10:00,26.6,17.2,29.97,NE,43,2.2,3.1,67,0.00,,OVC060,0.00,VWS V12.08,2013-03-05 11:10:00,
2013-03-05 06:15:00,26.5,17.0,29.97,NE,43,2.7,2.7,67,0.00,,OVC060,0.00,VWS V12.08,2013-03-05 11:15:00,
2013-03-05 06:20:00,26.5,17.3,29.97,NE,43,2.2,2.7,68,0.00,,OVC060,0.00,VWS V12.08,2013-03-05 11:20:00,
2013-03-05 06:25:00,26.5,17.3,29.97,NE,43,3.1,3.6,68,0.00,,OVC060,0.00,VWS V12.08,2013-03-05 11:25:00,
2013-03-05 06:30:00,26.3,17.5,29.97,NE,45,2.7,3.1,69,0.00,,OVC060,0.00,VWS V12.08,2013-03-05 11:30:00,
2013-03-05 06:35:00,26.1,17.3,29.97,NE,44,2.2,2.7,69,0.00,,OVC060,0.00,VWS V12.08,2013-03-05 11:35:00,
2013-03-05 06:40:00,26.1,17.7,29.97,NE,44,3.1,3.1,70,0.00,,OVC060,0.00,VWS V12.08,2013-03-05 11:40:00,
2013-03-05 06:45:00,26.1,17.3,29.97,NE,37,2.7,2.7,69,0.00,,OVC075,0.00,VWS V12.08,2013-03-05 11:45:00,
2013-03-05 06:50:00,26.1,17.7,29.97,NE,48,2.2,2.7,70,0.00,,OVC075,0.00,VWS V12.08,2013-03-05 11:50:00,
2013-03-05 06:55:00,25.9,17.5,29.97,NE,47,2.7,3.1,70,0.00,,OVC075,0.00,VWS V12.08,2013-03-05 11:55:00,
2013-03-05 07:00:00,26.1,17.7,29.97,NE,47,2.7,2.7,70,0.00,,OVC075,0.00,VWS V12.08,2013-03-05 12:00:00,
2013-03-05 07:05:00,26.1,17.7,29.97,NE,41,3.1,3.1,70,0.00,,OVC075,0.00,VWS V12.08,2013-03-05 12:05:00,
2013-03-05 07:10:00,26.1,18.0,29.97,NE,37,2.7,3.1,71,0.00,,OVC075,0.00,VWS V12.08,2013-03-05 12:10:00,
2013-03-05 07:15:00,26.1,17.7,29.97,NE,40,2.2,2.7,70,0.00,,OVC075,0.00,VWS V12.08,2013-03-05 12:15:00,
2013-03-05 07:20:00,26.3,17.5,29.97,NE,41,0.0,2.7,69,0.00,,OVC075,0.00,VWS V12.08,2013-03-05 12:20:00,
2013-03-05 07:25:00,26.5,17.7,29.97,NE,41,0.0,0.0,69,0.00,,OVC075,0.00,VWS V12.08,2013-03-05 12:25:00,
2013-03-05 07:30:00,26.8,18.4,29.97,NE,41,0.0,0.0,70,0.00,,OVC075,0.00,VWS V12.08,2013-03-05 12:30:00,
2013-03-05 07:35:00,27.2,18.4,29.97,NE,41,0.0,0.0,69,0.00,,OVC075,0.00,VWS V12.08,2013-03-05 12:35:00,
2013-03-05 07:40:00,27.7,18.5,29.97,NE,41,0.0,0.0,68,0.00,,OVC075,0.00,VWS V12.08,2013-03-05 12:40:00,
2013-03-05 07:45:00,28.1,18.5,29.97,NE,41,0.0,0.0,67,0.00,,OVC075,0.00,VWS V12.08,2013-03-05 12:45:00,
2013-03-05 07:50:00,27.9,17.3,29.97,NE,41,3.1,3.6,64,0.00,,OVC075,0.00,VWS V12.08,2013-03-05 12:50:00,
2013-03-05 07:55:00,27.9,18.0,29.94,NE,42,3.6,3.6,66,0.00,,OVC075,0.00,VWS V12.08,2013-03-05 12:55:00,
2013-03-05 08:00:00,28.1,18.5,29.94,NNE,21,3.1,3.1,67,0.00,,BKN075,0.00,VWS V12.08,2013-03-05 13:00:00,
2013-03-05 08:05:00,28.1,17.9,29.94,NE,39,3.1,3.6,65,0.00,,BKN075,0.00,VWS V12.08,2013-03-05 13:05:00,
2013-03-05 08:10:00,28.3,17.7,29.94,NNE,30,4.0,4.0,64,0.00,,BKN075,0.00,VWS V12.08,2013-03-05 13:10:00,
2013-03-05 08:15:00,28.8,18.2,29.94,NE,45,0.0,2.7,64,0.00,,BKN075,0.00,VWS V12.08,2013-03-05 13:15:00,
2013-03-05 08:20:00,29.2,18.1,29.94,NE,52,0.0,0.0,63,0.00,,BKN075,0.00,VWS V12.08,2013-03-05 13:20:00,
2013-03-05 08:25:00,29.9,18.5,29.94,NE,52,0.0,0.0,62,0.00,,BKN075,0.00,VWS V12.08,2013-03-05 13:25:00,
2013-03-05 08:30:00,30.4,19.0,29.94,NE,52,0.0,0.0,62,0.00,,BKN075,0.00,VWS V12.08,2013-03-05 13:30:00,
2013-03-05 08:35:00,30.6,18.4,29.94,NE,55,2.7,3.6,60,0.00,,BKN075,0.00,VWS V12.08,2013-03-05 13:35:00,
2013-03-05 08:40:00,30.8,17.4,29.94,North,8,2.7,4.0,57,0.00,,BKN075,0.00,VWS V12.08,2013-03-05 13:40:00,
2013-03-05 08:45:00,30.6,16.8,29.94,NNE,28,4.0,5.4,56,0.00,,FEW070,0.00,VWS V12.08,2013-03-05 13:45:00,
2013-03-05 08:50:00,30.6,17.2,29.94,NNE,22,0.0,2.2,57,0.00,,FEW070,0.00,VWS V12.08,2013-03-05 13:50:00,
2013-03-05 08:55:00,31.3,17.9,29.94,NE,46,2.7,3.1,57,0.00,,FEW070,0.00,VWS V12.08,2013-03-05 13:55:00,
2013-03-05 09:00:00,31.9,17.5,29.94,NE,50,2.7,3.1,55,0.00,,FEW070,0.00,VWS V12.08,2013-03-05 14:00:00,
2013-03-05 09:05:00,31.9,17.1,29.94,NE,37,4.0,4.0,54,0.00,,FEW070,0.00,VWS V12.08,2013-03-05 14:05:00,
2013-03-05 09:10:00,31.9,17.1,29.94,NNE,26,3.6,5.4,54,0.00,,FEW070,0.00,VWS V12.08,2013-03-05 14:10:00,
2013-03-05 09:15:00,31.7,17.0,29.94,NE,50,3.6,4.9,54,0.00,,FEW070,0.00,VWS V12.08,2013-03-05 14:15:00,
2013-03-05 09:20:00,32.0,18.1,29.94,NNE,27,3.1,4.0,56,0.00,,FEW070,0.00,VWS V12.08,2013-03-05 14:20:00,
2013-03-05 09:25:00,32.4,18.5,29.94,NE,44,4.0,5.4,56,0.00,,FEW070,0.00,VWS V12.08,2013-03-05 14:25:00,
2013-03-05 09:30:00,33.1,18.7,29.94,NE,55,4.9,5.8,55,0.00,,FEW070,0.00,VWS V12.08,2013-03-05 14:30:00,
2013-03-05 09:35:00,33.5,17.8,29.94,NE,51,4.9,4.9,52,0.00,,FEW070,0.00,VWS V12.08,2013-03-05 14:35:00,
2013-03-05 09:40:00,33.8,18.1,29.91,NE,42,2.7,3.6,52,0.00,,FEW070,0.00,VWS V12.08,2013-03-05 14:40:00,
2013-03-05 09:45:00,34.0,18.3,29.91,NNE,24,0.0,4.0,52,0.00,,CLR,0.00,VWS V12.08,2013-03-05 14:45:00,
2013-03-05 09:50:00,34.6,18.3,29.91,NNE,28,0.0,2.7,51,0.00,,CLR,0.00,VWS V12.08,2013-03-05 14:50:00,
2013-03-05 09:55:00,34.9,18.2,29.94,NNE,30,5.8,5.8,50,0.00,,CLR,0.00,VWS V12.08,2013-03-05 14:55:00,
2013-03-05 10:00:00,34.4,17.7,29.94,North,5,3.1,4.9,50,0.00,,CLR,0.00,VWS V12.08,2013-03-05 15:00:00,
2013-03-05 10:05:00,34.4,18.1,29.94,NNE,30,0.0,3.6,51,0.00,,CLR,0.00,VWS V12.08,2013-03-05 15:05:00,
2013-03-05 10:10:00,34.9,18.6,29.94,NNE,26,4.0,4.0,51,0.00,,CLR,0.00,VWS V12.08,2013-03-05 15:10:00,
2013-03-05 10:15:00,34.4,17.7,29.94,NNE,13,5.8,5.8,50,0.00,,CLR,0.00,VWS V12.08,2013-03-05 15:15:00,
2013-03-05 10:20:00,34.2,17.5,29.94,NE,47,3.1,7.6,50,0.00,,CLR,0.00,VWS V12.08,2013-03-05 15:20:00,
2013-03-05 10:25:00,34.6,18.3,29.91,ENE,77,3.6,5.4,51,0.00,,CLR,0.00,VWS V12.08,2013-03-05 15:25:00,
2013-03-05 10:30:00,34.9,18.2,29.91,ENE,66,5.4,5.4,50,0.00,,CLR,0.00,VWS V12.08,2013-03-05 15:30:00,
2013-03-05 10:35:00,35.1,17.9,29.91,NNE,20,6.7,6.7,49,0.00,,CLR,0.00,VWS V12.08,2013-03-05 15:35:00,
2013-03-05 10:40:00,35.6,18.4,29.91,North,7,3.1,6.3,49,0.00,,CLR,0.00,VWS V12.08,2013-03-05 15:40:00,
2013-03-05 10:45:00,36.0,18.2,29.91,NNW,340,4.9,6.3,48,0.00,,OVC055,0.00,VWS V12.08,2013-03-05 15:45:00,
2013-03-05 10:50:00,36.0,17.7,29.91,NNE,25,3.1,5.4,47,0.00,,OVC055,0.00,VWS V12.08,2013-03-05 15:50:00,
2013-03-05 10:55:00,36.4,17.6,29.91,North,4,5.4,5.8,46,0.00,,OVC055,0.00,VWS V12.08,2013-03-05 15:55:00,
2013-03-05 11:00:00,36.5,17.7,29.91,NE,46,4.5,6.3,46,0.00,,OVC055,0.00,VWS V12.08,2013-03-05 16:00:00,
2013-03-05 11:05:00,36.5,16.7,29.91,NE,45,5.4,8.3,44,0.00,,OVC055,0.00,VWS V12.08,2013-03-05 16:05:00,
2013-03-05 11:10:00,37.1,16.7,29.91,NE,38,4.0,4.0,43,0.00,,OVC055,0.00,VWS V12.08,2013-03-05 16:10:00,
2013-03-05 11:15:00,37.4,17.5,29.91,NNE,30,3.6,5.8,44,0.00,,OVC055,0.00,VWS V12.08,2013-03-05 16:15:00,
2013-03-05 11:20:00,37.8,17.3,29.91,NE,51,3.6,6.3,43,0.00,,OVC055,0.00,VWS V12.08,2013-03-05 16:20:00,
2013-03-05 11:25:00,37.8,16.2,29.88,North,6,6.3,8.3,41,0.00,,OVC055,0.00,VWS V12.08,2013-03-05 16:25:00,
2013-03-05 11:30:00,37.8,16.2,29.88,NNE,23,6.3,6.3,41,0.00,,OVC055,0.00,VWS V12.08,2013-03-05 16:30:00,
2013-03-05 11:35:00,38.2,16.5,29.88,NE,40,5.8,8.1,41,0.00,,OVC055,0.00,VWS V12.08,2013-03-05 16:35:00,
2013-03-05 11:40:00,38.2,16.5,29.88,NE,34,6.3,6.3,41,0.00,,OVC055,0.00,VWS V12.08,2013-03-05 16:40:00,
2013-03-05 11:45:00,38.5,16.9,29.88,North,10,3.6,4.9,41,0.00,,OVC075,0.00,VWS V12.08,2013-03-05 16:45:00,
2013-03-05 11:50:00,39.2,17.0,29.88,North,357,0.0,3.6,40,0.00,,OVC075,0.00,VWS V12.08,2013-03-05 16:50:00,
2013-03-05 11:55:00,39.6,16.7,29.88,NE,42,5.4,6.7,39,0.00,,OVC075,0.00,VWS V12.08,2013-03-05 16:55:00,
2013-03-05 12:00:00,40.1,17.8,29.88,ESE,107,4.0,4.0,40,0.00,,OVC075,0.00,VWS V12.08,2013-03-05 17:00:00,
2013-03-05 12:05:00,40.5,17.5,29.88,NNE,25,5.4,5.4,39,0.00,,OVC075,0.00,VWS V12.08,2013-03-05 17:05:00,
2013-03-05 12:10:00,41.0,18.0,29.88,NE,51,4.0,7.6,39,0.00,,OVC075,0.00,VWS V12.08,2013-03-05 17:10:00,
2013-03-05 12:15:00,41.4,18.3,29.88,East,92,3.6,4.9,39,0.00,,OVC075,0.00,VWS V12.08,2013-03-05 17:15:00,
2013-03-05 12:20:00,42.3,18.5,29.88,NNE,17,2.2,7.6,38,0.00,,OVC075,0.00,VWS V12.08,2013-03-05 17:20:00,
2013-03-05 12:25:00,42.3,18.5,29.88,NE,35,7.2,8.7,38,0.00,,OVC075,0.00,VWS V12.08,2013-03-05 17:25:00,
2013-03-05 12:30:00,42.5,18.7,29.88,ENE,76,5.8,8.7,38,0.00,,OVC075,0.00,VWS V12.08,2013-03-05 17:30:00,
2013-03-05 12:35:00,42.5,18.7,29.85,ESE,123,2.7,7.6,38,0.00,,OVC075,0.00,VWS V12.08,2013-03-05 17:35:00,
2013-03-05 12:40:00,43.2,19.3,29.85,NNE,28,3.6,5.8,38,0.00,,OVC075,0.00,VWS V12.08,2013-03-05 17:40:00,
2013-03-05 12:45:00,42.5,18.7,29.85,NE,35,5.8,8.7,38,0.00,,BKN090,0.00,VWS V12.08,2013-03-05 17:45:00,
2013-03-05 12:50:00,43.6,19.6,29.85,NNW,345,7.6,8.1,38,0.00,,BKN090,0.00,VWS V12.08,2013-03-05 17:50:00,
2013-03-05 12:55:00,43.9,20.0,29.85,NNW,343,2.2,4.9,38,0.00,,BKN090,0.00,VWS V12.08,2013-03-05 17:55:00,
2013-03-05 13:00:00,44.8,20.1,29.85,NE,39,6.3,6.3,37,0.00,,BKN090,0.00,VWS V12.08,2013-03-05 18:00:00,
2013-03-05 13:05:00,44.6,18.7,29.85,ENE,61,0.0,6.3,35,0.00,,BKN090,0.00,VWS V12.08,2013-03-05 18:05:00,
2013-03-05 13:10:00,46.1,19.3,29.82,NNE,16,6.3,6.3,34,0.00,,BKN090,0.00,VWS V12.08,2013-03-05 18:10:00,
2013-03-05 13:15:00,46.3,19.5,29.82,NE,46,5.4,5.4,34,0.00,,BKN090,0.00,VWS V12.08,2013-03-05 18:15:00,
2013-03-05 13:20:00,46.8,19.9,29.82,North,9,3.1,7.6,34,0.00,,BKN090,0.00,VWS V12.08,2013-03-05 18:20:00,
2013-03-05 13:25:00,47.2,20.2,29.82,NE,39,5.4,8.7,34,0.00,,BKN090,0.00,VWS V12.08,2013-03-05 18:25:00,
2013-03-05 13:30:00,46.6,19.8,29.82,NE,44,6.3,7.2,34,0.00,,BKN090,0.00,VWS V12.08,2013-03-05 18:30:00,
2013-03-05 13:35:00,46.4,19.6,29.82,ESE,106,4.5,5.8,34,0.00,,BKN090,0.00,VWS V12.08,2013-03-05 18:35:00,
2013-03-05 13:40:00,47.2,20.2,29.82,NE,38,8.1,8.1,34,0.00,,BKN090,0.00,VWS V12.08,2013-03-05 18:40:00,
2013-03-05 13:45:00,47.3,19.0,29.82,NE,45,5.4,6.3,32,0.00,,FEW038,0.00,VWS V12.08,2013-03-05 18:45:00,
2013-03-05 13:50:00,47.7,20.7,29.82,ENE,77,4.0,5.8,34,0.00,,FEW038,0.00,VWS V12.08,2013-03-05 18:50:00,
2013-03-05 13:55:00,47.9,18.7,29.79,NNE,23,6.3,6.7,31,0.00,,FEW038,0.00,VWS V12.08,2013-03-05 18:55:00,
2013-03-05 14:00:00,48.2,19.0,29.79,ENE,57,4.9,5.4,31,0.00,,FEW038,0.00,VWS V12.08,2013-03-05 19:00:00,
2013-03-05 14:05:00,48.6,19.4,29.76,NE,52,3.6,6.3,31,0.00,,FEW038,0.00,VWS V12.08,2013-03-05 19:05:00,
2013-03-05 14:10:00,48.8,21.7,29.76,NNE,32,4.9,4.9,34,0.00,,FEW038,0.00,VWS V12.08,2013-03-05 19:10:00,
2013-03-05 14:15:00,49.0,19.7,29.76,NNE,33,0.0,5.8,31,0.00,,FEW038,0.00,VWS V12.08,2013-03-05 19:15:00,
2013-03-05 14:20:00,49.0,19.7,29.76,NNE,24,4.0,6.3,31,0.00,,FEW038,0.00,VWS V12.08,2013-03-05 19:20:00,
2013-03-05 14:25:00,49.3,20.0,29.76,NE,47,6.3,8.3,31,0.00,,FEW038,0.00,VWS V12.08,2013-03-05 19:25:00,
2013-03-05 14:31:00,49.1,19.8,29.76,ENE,59,8.1,8.1,31,0.00,,FEW038,0.00,VWS V12.08,2013-03-05 19:31:00,
2013-03-05 14:35:00,49.9,20.5,29.76,NNE,33,2.7,5.8,31,0.00,,FEW038,0.00,VWS V12.08,2013-03-05 19:35:00,
2013-03-05 14:40:00,49.7,20.3,29.76,NNE,14,7.2,7.2,31,0.00,,FEW038,0.00,VWS V12.08,2013-03-05 19:40:00,
2013-03-05 14:45:00,50.2,20.8,29.76,ESE,102,3.6,5.8,31,0.00,,FEW050,0.00,VWS V12.08,2013-03-05 19:45:00,
2013-03-05 14:50:00,50.2,20.8,29.73,NNE,16,4.9,5.4,31,0.00,,FEW050,0.00,VWS V12.08,2013-03-05 19:50:00,
2013-03-05 14:55:00,50.4,20.9,29.73,NW,319,3.6,6.3,31,0.00,,FEW050,0.00,VWS V12.08,2013-03-05 19:55:00,
2013-03-05 15:00:00,50.8,21.2,29.73,ENE,76,2.7,2.7,31,0.00,,FEW050,0.00,VWS V12.08,2013-03-05 20:00:00,
2013-03-05 15:06:00,50.9,21.4,29.73,SSE,165,4.0,5.8,31,0.00,,FEW050,0.00,VWS V12.08,2013-03-05 20:06:00,
2013-03-05 15:11:00,51.1,23.7,29.73,North,10,4.0,5.4,34,0.00,,FEW050,0.00,VWS V12.08,2013-03-05 20:11:00,
2013-03-05 15:15:00,51.3,23.2,29.73,NE,44,2.2,2.7,33,0.00,,FEW050,0.00,VWS V12.08,2013-03-05 20:15:00,
2013-03-05 15:20:00,51.5,23.4,29.73,NE,36,3.6,5.8,33,0.00,,FEW050,0.00,VWS V12.08,2013-03-05 20:20:00,
2013-03-05 15:26:00,51.3,23.2,29.73,North,7,5.4,6.3,33,0.00,,FEW050,0.00,VWS V12.08,2013-03-05 20:26:00,
2013-03-05 15:30:00,50.9,23.6,29.73,NNE,13,5.4,8.3,34,0.00,,FEW050,0.00,VWS V12.08,2013-03-05 20:30:00,
2013-03-05 15:35:00,50.2,24.3,29.73,North,4,5.4,6.7,36,0.00,,FEW050,0.00,VWS V12.08,2013-03-05 20:35:00,
2013-03-05 15:41:00,49.7,23.8,29.73,NE,48,2.7,5.4,36,0.00,,FEW050,0.00,VWS V12.08,2013-03-05 20:41:00,
2013-03-05 15:46:00,49.7,23.8,29.73,NNE,31,3.1,4.0,36,0.00,,FEW050,0.00,VWS V12.08,2013-03-05 20:46:00,
2013-03-05 15:51:00,49.7,23.8,29.73,NNE,30,4.0,6.3,36,0.00,,FEW050,0.00,VWS V12.08,2013-03-05 20:51:00,
2013-03-05 15:56:00,49.7,23.8,29.73,NNE,27,4.0,4.9,36,0.00,,FEW050,0.00,VWS V12.08,2013-03-05 20:56:00,
2013-03-05 16:01:00,50.0,24.1,29.73,NNE,16,0.0,5.8,36,0.00,,CLR,0.00,VWS V12.08,2013-03-05 21:01:00,
2013-03-05 16:06:00,50.2,25.0,29.70,NNE,24,2.7,3.1,37,0.00,,CLR,0.00,VWS V12.08,2013-03-05 21:06:00,
2013-03-05 16:11:00,50.4,24.5,29.70,NNE,24,4.0,6.3,36,0.00,,CLR,0.00,VWS V12.08,2013-03-05 21:11:00,
2013-03-05 16:16:00,50.4,25.1,29.70,North,357,5.8,5.8,37,0.00,,CLR,0.00,VWS V12.08,2013-03-05 21:16:00,
2013-03-05 16:21:00,50.4,25.1,29.70,NNE,26,3.1,5.4,37,0.00,,CLR,0.00,VWS V12.08,2013-03-05 21:21:00,
2013-03-05 16:26:00,50.2,25.0,29.70,NE,44,4.0,5.8,37,0.00,,CLR,0.00,VWS V12.08,2013-03-05 21:26:00,
2013-03-05 16:31:00,50.2,25.0,29.70,NNE,21,4.9,6.3,37,0.00,,CLR,0.00,VWS V12.08,2013-03-05 21:31:00,
2013-03-05 16:36:00,50.2,25.0,29.70,NNE,15,4.9,4.9,37,0.00,,CLR,0.00,VWS V12.08,2013-03-05 21:36:00,
2013-03-05 16:41:00,50.4,25.1,29.70,NNE,22,3.6,4.9,37,0.00,,CLR,0.00,VWS V12.08,2013-03-05 21:41:00,
2013-03-05 16:46:00,50.4,25.1,29.70,NE,37,2.2,4.9,37,0.00,,OVC110,0.00,VWS V12.08,2013-03-05 21:46:00,
2013-03-05 16:51:00,50.2,25.0,29.70,NNE,13,2.7,3.1,37,0.00,,OVC110,0.00,VWS V12.08,2013-03-05 21:51:00,
2013-03-05 16:56:00,50.2,25.0,29.70,NNE,31,0.0,0.0,37,0.00,,OVC110,0.00,VWS V12.08,2013-03-05 21:56:00,
2013-03-05 17:01:00,50.0,24.8,29.70,North,7,0.0,0.0,37,0.00,,OVC110,0.00,VWS V12.08,2013-03-05 22:01:00,
2013-03-05 17:06:00,49.9,25.3,29.70,NNE,17,0.0,0.0,38,0.00,,OVC110,0.00,VWS V12.08,2013-03-05 22:06:00,
2013-03-05 17:11:00,49.7,25.1,29.67,NNE,32,0.0,0.0,38,0.00,,OVC110,0.00,VWS V12.08,2013-03-05 22:11:00,
2013-03-05 17:16:00,49.7,25.1,29.67,NNE,15,0.0,0.0,38,0.00,,OVC110,0.00,VWS V12.08,2013-03-05 22:16:00,
2013-03-05 17:21:00,49.5,25.6,29.67,NE,42,0.0,0.0,39,0.00,,OVC110,0.00,VWS V12.08,2013-03-05 22:21:00,
2013-03-05 17:26:00,49.1,25.3,29.67,NE,45,0.0,0.0,39,0.00,,OVC110,0.00,VWS V12.08,2013-03-05 22:26:00,
2013-03-05 17:31:00,49.1,25.3,29.67,NE,35,0.0,0.0,39,0.00,,OVC110,0.00,VWS V12.08,2013-03-05 22:31:00,
2013-03-05 17:36:00,48.8,24.9,29.64,NNE,31,0.0,0.0,39,0.00,,OVC110,0.00,VWS V12.08,2013-03-05 22:36:00,
2013-03-05 17:41:00,48.8,23.7,29.64,NNE,18,0.0,0.0,37,0.00,,OVC110,0.00,VWS V12.08,2013-03-05 22:41:00,
2013-03-05 17:46:00,48.6,23.5,29.64,NE,38,0.0,0.0,37,0.00,,OVC110,0.00,VWS V12.08,2013-03-05 22:46:00,
2013-03-05 17:51:00,48.2,23.2,29.64,NNE,20,0.0,0.0,37,0.00,,OVC110,0.00,VWS V12.08,2013-03-05 22:51:00,
2013-03-05 17:56:00,48.2,23.2,29.64,North,0,0.0,0.0,37,0.00,,OVC110,0.00,VWS V12.08,2013-03-05 22:56:00,
2013-03-05 18:01:00,48.4,22.7,29.64,NE,50,0.0,0.0,36,0.00,,OVC110,0.00,VWS V12.08,2013-03-05 23:01:00,
2013-03-05 18:06:00,48.4,22.7,29.64,NE,42,0.0,0.0,36,0.00,,OVC110,0.00,VWS V12.08,2013-03-05 23:06:00,
2013-03-05 18:11:00,48.2,22.5,29.64,NE,34,0.0,0.0,36,0.00,,OVC110,0.00,VWS V12.08,2013-03-05 23:11:00,
2013-03-05 18:16:00,47.9,22.2,29.64,NNE,12,0.0,0.0,36,0.00,,OVC110,0.00,VWS V12.08,2013-03-05 23:16:00,
2013-03-05 18:21:00,47.5,22.6,29.64,NE,35,0.0,0.0,37,0.00,,OVC110,0.00,VWS V12.08,2013-03-05 23:21:00,
2013-03-05 18:26:00,47.5,22.6,29.64,ENE,75,0.0,0.0,37,0.00,,OVC110,0.00,VWS V12.08,2013-03-05 23:26:00,
2013-03-05 18:31:00,47.0,22.1,29.64,NE,44,0.0,0.0,37,0.00,,OVC110,0.00,VWS V12.08,2013-03-05 23:31:00,
2013-03-05 18:36:00,47.0,22.1,29.64,NNE,29,0.0,0.0,37,0.00,,OVC110,0.00,VWS V12.08,2013-03-05 23:36:00,
2013-03-05 18:41:00,47.2,22.2,29.64,ENE,64,0.0,0.0,37,0.00,,OVC110,0.00,VWS V12.08,2013-03-05 23:41:00,
2013-03-05 18:46:00,47.3,22.4,29.64,NNE,17,0.0,0.0,37,0.00,,BKN110,0.00,VWS V12.08,2013-03-05 23:46:00,
2013-03-05 18:51:00,47.3,22.4,29.64,NNE,21,0.0,0.0,37,0.00,,BKN110,0.00,VWS V12.08,2013-03-05 23:51:00,
2013-03-05 18:56:00,47.2,22.2,29.64,NNE,32,0.0,0.0,37,0.00,,BKN110,0.00,VWS V12.08,2013-03-05 23:56:00,
2013-03-05 19:01:00,47.2,22.2,29.64,NE,45,0.0,0.0,37,0.00,,BKN110,0.00,VWS V12.08,2013-03-06 00:01:00,
2013-03-05 19:06:00,47.0,20.1,29.61,NE,42,7.2,11.0,34,0.00,,BKN110,0.00,VWS V12.08,2013-03-06 00:06:00,
2013-03-05 19:11:00,46.6,19.8,29.61,East,97,6.3,11.0,34,0.00,,BKN110,0.00,VWS V12.08,2013-03-06 00:11:00,
2013-03-05 19:16:00,46.4,18.2,29.61,North,357,8.3,11.9,32,0.00,,OVC055,0.00,VWS V12.08,2013-03-06 00:16:00,
2013-03-05 19:21:00,46.1,17.9,29.61,NE,37,8.1,10.1,32,0.00,,OVC055,0.00,VWS V12.08,2013-03-06 00:21:00,
2013-03-05 19:26:00,45.9,17.7,29.61,NE,46,13.6,14.1,32,0.00,,OVC055,0.00,VWS V12.08,2013-03-06 00:26:00,
2013-03-05 19:31:00,45.7,17.6,29.61,NNE,25,12.3,17.0,32,0.00,,OVC055,0.00,VWS V12.08,2013-03-06 00:31:00,
2013-03-05 19:36:00,45.5,17.4,29.61,North,353,4.0,11.0,32,0.00,,OVC055,0.00,VWS V12.08,2013-03-06 00:36:00,
2013-03-05 19:41:00,45.4,17.2,29.61,NE,49,14.5,14.5,32,0.00,,OVC055,0.00,VWS V12.08,2013-03-06 00:41:00,
2013-03-05 19:46:00,45.2,17.1,29.61,NNE,21,8.3,10.5,32,0.00,,OVC055,0.00,VWS V12.08,2013-03-06 00:46:00,
2013-03-05 19:51:00,45.0,16.9,29.58,NNE,28,10.1,14.5,32,0.00,,OVC055,0.00,VWS V12.08,2013-03-06 00:51:00,
2013-03-05 19:56:00,44.8,16.8,29.58,NE,40,5.4,10.5,32,0.00,,OVC055,0.00,VWS V12.08,2013-03-06 00:56:00,
2013-03-05 20:01:00,44.8,16.8,29.58,NNE,25,6.3,11.4,32,0.00,,OVC055,0.00,VWS V12.08,2013-03-06 01:01:00,
2013-03-05 20:06:00,44.8,16.8,29.58,NE,40,7.6,11.9,32,0.00,,OVC055,0.00,VWS V12.08,2013-03-06 01:06:00,
2013-03-05 20:11:00,44.6,16.6,29.58,NE,50,12.3,13.2,32,0.00,,OVC055,0.00,VWS V12.08,2013-03-06 01:11:00,
2013-03-05 20:16:00,44.6,16.6,29.58,NNE,33,5.8,12.8,32,0.00,,OVC055,0.00,VWS V12.08,2013-03-06 01:16:00,
2013-03-05 20:21:00,44.5,18.5,29.58,ENE,64,9.2,15.0,35,0.00,,OVC055,0.00,VWS V12.08,2013-03-06 01:21:00,
2013-03-05 20:26:00,44.3,18.4,29.58,NE,34,8.3,11.0,35,0.00,,OVC055,0.00,VWS V12.08,2013-03-06 01:26:00,
2013-03-05 20:31:00,44.1,18.2,29.58,ENE,58,9.2,17.4,35,0.00,,OVC055,0.00,VWS V12.08,2013-03-06 01:31:00,
2013-03-05 20:36:00,43.6,17.7,29.58,NNE,24,8.7,12.8,35,0.00,,OVC055,0.00,VWS V12.08,2013-03-06 01:36:00,
2013-03-05 20:41:00,42.8,19.0,29.58,North,357,10.1,15.0,38,0.00,,OVC055,0.00,VWS V12.08,2013-03-06 01:41:00,
2013-03-05 20:46:00,42.1,19.0,29.58,NE,49,11.0,16.3,39,0.00,,OVC100,0.00,VWS V12.08,2013-03-06 01:46:00,
2013-03-05 20:51:00,41.2,18.7,29.58,ENE,64,11.0,12.3,40,0.00,,OVC100,0.00,VWS V12.08,2013-03-06 01:51:00,
2013-03-05 20:56:00,40.3,20.7,29.58,North,1,8.3,13.6,45,0.00,,OVC100,0.00,VWS V12.08,2013-03-06 01:56:00,
2013-03-05 21:01:00,39.8,22.2,29.58,NE,34,9.6,11.9,49,0.00,,OVC100,0.00,VWS V12.08,2013-03-06 02:01:00,
2013-03-05 21:06:00,39.2,22.6,29.58,NE,37,6.7,11.0,51,0.00,,OVC100,0.00,VWS V12.08,2013-03-06 02:06:00,
2013-03-05 21:11:00,38.9,23.7,29.58,ESE,104,9.6,12.8,54,0.00,,OVC100,0.00,VWS V12.08,2013-03-06 02:11:00,
2013-03-05 21:16:00,38.5,25.5,29.58,NE,54,8.7,11.9,59,0.00,,OVC100,0.00,VWS V12.08,2013-03-06 02:16:00,
2013-03-05 21:21:00,38.3,26.1,29.58,NNE,17,5.4,13.2,61,0.00,,OVC100,0.00,VWS V12.08,2013-03-06 02:21:00,
2013-03-05 21:26:00,38.2,27.1,29.58,East,88,13.2,13.2,64,0.00,,OVC100,0.00,VWS V12.08,2013-03-06 02:26:00,
2013-03-05 21:31:00,38.0,28.0,29.58,NNW,343,6.3,6.3,67,0.00,,OVC100,0.00,VWS V12.08,2013-03-06 02:31:00,
2013-03-05 21:36:00,37.4,29.6,29.61,East,99,11.0,11.0,73,0.00,,OVC100,0.00,VWS V12.08,2013-03-06 02:36:00,
2013-03-05 21:41:00,37.1,30.2,29.61,NNE,13,4.0,10.1,76,0.00,,OVC100,0.00,VWS V12.08,2013-03-06 02:41:00,
2013-03-05 21:46:00,36.5,31.0,29.61,North,357,13.2,15.0,80,0.00,,-RA,0.00,VWS V12.08,2013-03-06 02:46:00,
2013-03-05 21:51:00,36.4,31.4,29.61,North,4,6.3,10.1,82,0.04,,-RA,0.04,VWS V12.08,2013-03-06 02:51:00,
2013-03-05 21:56:00,36.2,31.8,29.61,NE,49,9.2,12.3,84,0.04,,-RA,0.04,VWS V12.08,2013-03-06 02:56:00,
2013-03-05 22:01:00,35.8,31.8,29.61,ESE,103,6.3,11.0,85,0.04,,-RA,0.04,VWS V12.08,2013-03-06 03:01:00,
2013-03-05 22:06:00,35.6,32.2,29.58,NNE,25,8.7,8.7,87,0.04,,-RA,0.04,VWS V12.08,2013-03-06 03:06:00,
2013-03-05 22:11:00,35.5,32.3,29.58,ENE,78,5.8,7.6,88,0.04,,-RA,0.04,VWS V12.08,2013-03-06 03:11:00,
2013-03-05 22:16:00,35.3,32.7,29.58,NNE,27,4.9,8.3,90,0.04,,-RA,0.04,VWS V12.08,2013-03-06 03:16:00,
2013-03-05 22:21:00,35.3,32.9,29.58,NNE,15,5.8,7.2,91,0.04,,-RA,0.04,VWS V12.08,2013-03-06 03:21:00,
2013-03-05 22:26:00,35.3,32.9,29.58,NNE,12,4.9,8.7,91,0.04,,-RA,0.04,VWS V12.08,2013-03-06 03:26:00,
2013-03-05 22:31:00,35.3,33.2,29.58,NE,40,6.3,13.2,92,0.04,,-RA,0.04,VWS V12.08,2013-03-06 03:31:00,
2013-03-05 22:36:00,35.3,33.5,29.58,NE,54,10.1,11.0,93,0.04,,-RA,0.04,VWS V12.08,2013-03-06 03:36:00,
2013-03-05 22:41:00,35.3,33.5,29.55,NNE,14,10.1,10.1,93,0.04,,-RA,0.04,VWS V12.08,2013-03-06 03:41:00,
2013-03-05 22:46:00,35.5,33.6,29.55,North,1,5.8,8.7,93,0.04,,RA,0.04,VWS V12.08,2013-03-06 03:46:00,
2013-03-05 22:51:00,35.5,33.4,29.55,ENE,58,3.1,6.3,92,0.04,,RA,0.04,VWS V12.08,2013-03-06 03:51:00,
2013-03-05 22:56:00,35.6,33.5,29.55,NE,47,8.1,8.7,92,0.08,,RA,0.08,VWS V12.08,2013-03-06 03:56:00,
2013-03-05 23:01:00,35.6,33.5,29.55,NNE,31,6.3,8.3,92,0.08,,RA,0.08,VWS V12.08,2013-03-06 04:01:00,
2013-03-05 23:06:00,35.5,33.1,29.55,NE,47,8.1,10.5,91,0.04,,RA,0.08,VWS V12.08,2013-03-06 04:06:00,
2013-03-05 23:11:00,35.5,33.4,29.55,NE,45,5.4,8.1,92,0.04,,RA,0.08,VWS V12.08,2013-03-06 04:11:00,
2013-03-05 23:16:00,35.5,33.4,29.55,NE,43,5.8,8.3,92,0.04,,RA,0.08,VWS V12.08,2013-03-06 04:16:00,
2013-03-05 23:21:00,35.5,33.4,29.55,NNE,16,6.3,8.1,92,0.04,,RA,0.08,VWS V12.08,2013-03-06 04:21:00,
2013-03-05 23:26:00,35.5,33.4,29.55,NE,38,8.7,8.7,92,0.04,,RA,0.08,VWS V12.08,2013-03-06 04:26:00,
2013-03-05 23:31:00,35.5,33.1,29.55,North,9,3.1,8.7,91,0.04,,RA,0.08,VWS V12.08,2013-03-06 04:31:00,
2013-03-05 23:36:00,35.3,33.2,29.55,North,353,5.4,6.3,92,0.04,,RA,0.08,VWS V12.08,2013-03-06 04:36:00,
2013-03-05 23:41:00,35.3,33.2,29.55,NNE,29,6.3,6.3,92,0.04,,RA,0.08,VWS V12.08,2013-03-06 04:41:00,
2013-03-05 23:46:00,35.1,33.0,29.55,NE,46,8.3,10.1,92,0.04,,RA,0.08,VWS V12.08,2013-03-06 04:46:00,
2013-03-05 23:51:00,35.1,33.3,29.55,ENE,73,5.8,8.3,93,0.04,,RA,0.08,VWS V12.08,2013-03-06 04:51:00,
2013-03-05 23:56:00,35.1,33.3,29.55,North,0,8.3,10.1,93,0.04,,RA,0.08,VWS V12.08,2013-03-06 04:56:00,